METAR Data
IDs: Format: Raw Decoded Include TAF

Data at: 0234 UTC 14 Dec 2018

METAR for:KHCR (Heber City Muni, UT, US)
Text:KHCR 140215Z AUTO 00000KT 10SM CLR M10/M13 A3043 RMK AO2
Temperature:-10.0°C ( 14°F)
Dewpoint:-13.0°C ( 9°F) [RH = 79%]
Pressure (altimeter):30.43 inches Hg (1030.6 mb)
Winds:calm
Visibility:10 or more sm (16+ km)
Ceiling:at least 12,000 feet AGL
Clouds:sky clear below 12,000 feet AGL
QC Flag:automated observation with no human augmentation